Time;durP1;ratioP1;P1;durP2;ratioP2;P2;SDS_P1;SDS_P2;PMS_P1;PMS_P2;Temp;Humidity;BMP_temperature;BMP_pressure;BME280_temperature;BME280_humidity;BME280_pressure;Samples;Min_cycle;Max_cycle;Signal;HPM_P1;HPM_P2
2023/01/24 00:00:01;;;;;;;45.53;17.93;;;;;;;2.65;100.00;103661.34;7396499;19;20403;-64
2023/01/24 00:02:31;;;;;;;45.43;18.10;;;;;;;2.60;100.00;103668.44;7394457;19;20391;-64
2023/01/24 00:05:00;;;;;;;42.57;17.03;;;;;;;2.45;100.00;103677.69;7396405;19;20424;-64
2023/01/24 00:07:30;;;;;;;54.40;17.60;;;;;;;2.39;100.00;103682.03;7394882;19;20400;-64
2023/01/24 00:09:59;;;;;;;51.10;18.37;;;;;;;2.37;100.00;103689.50;7397781;19;20392;-65
2023/01/24 00:12:28;;;;;;;43.70;17.20;;;;;;;2.40;100.00;103681.31;7395562;19;20758;-64
2023/01/24 00:15:00;;;;;;;39.63;17.30;;;;;;;2.30;100.00;103692.00;7397614;19;20994;-64
2023/01/24 00:17:30;;;;;;;36.20;16.03;;;;;;;2.22;100.00;103698.75;7394597;19;20399;-65
2023/01/24 00:19:59;;;;;;;52.03;20.77;;;;;;;2.27;100.00;103695.09;7395629;19;20423;-64
2023/01/24 00:22:29;;;;;;;37.07;16.83;;;;;;;2.07;100.00;103695.22;7394716;19;20387;-64
2023/01/24 00:24:58;;;;;;;41.80;17.30;;;;;;;1.92;100.00;103698.38;7397766;19;20822;-64
2023/01/24 00:27:31;;;;;;;48.53;15.97;;;;;;;2.17;100.00;103684.53;7393680;19;20399;-64
2023/01/24 00:30:04;;;;;;;53.63;18.73;;;;;;;2.89;100.00;103665.03;7397158;19;20400;-65
2023/01/24 00:32:33;;;;;;;40.73;17.40;;;;;;;2.76;100.00;103655.00;7394520;19;20416;-65
2023/01/24 00:35:03;;;;;;;44.53;17.03;;;;;;;2.57;100.00;103665.53;7396941;19;20467;-65
2023/01/24 00:37:32;;;;;;;52.63;19.07;;;;;;;2.85;100.00;103666.31;7393968;19;20755;-65
2023/01/24 00:40:02;;;;;;;46.57;16.70;;;;;;;2.39;100.00;103666.75;7396111;19;20407;-64
2023/01/24 00:42:31;;;;;;;47.57;18.20;;;;;;;2.68;100.00;103664.28;7394864;19;20396;-64
2023/01/24 00:45:03;;;;;;;40.37;17.67;;;;;;;2.51;100.00;103678.44;7396452;19;20395;-65
2023/01/24 00:47:33;;;;;;;40.90;17.77;;;;;;;2.52;100.00;103670.06;7394021;19;20778;-65
2023/01/24 00:50:02;;;;;;;42.27;16.80;;;;;;;2.62;100.00;103664.44;7396645;19;20395;-64
2023/01/24 00:52:32;;;;;;;49.93;17.67;;;;;;;2.66;100.00;103659.00;7393620;19;20475;-64
2023/01/24 00:55:02;;;;;;;43.50;17.70;;;;;;;2.75;100.00;103659.19;7396727;19;20400;-64
2023/01/24 00:57:31;;;;;;;48.27;19.00;;;;;;;3.04;100.00;103653.19;7391654;19;20406;-64
2023/01/24 01:00:03;;;;;;;43.50;17.20;;;;;;;3.24;100.00;103650.47;7394831;19;20416;-64
2023/01/24 01:02:33;;;;;;;44.33;17.30;;;;;;;3.19;100.00;103649.00;7393973;19;20742;-64
2023/01/24 01:05:02;;;;;;;45.77;17.83;;;;;;;3.17;100.00;103653.91;7396346;19;20413;-64
2023/01/24 01:07:32;;;;;;;40.90;18.50;;;;;;;2.79;100.00;103661.38;7393074;19;20412;-65
2023/01/24 01:10:01;;;;;;;43.23;16.70;;;;;;;2.56;100.00;103672.25;7396729;19;20395;-64
2023/01/24 01:12:31;;;;;;;42.00;17.30;;;;;;;2.85;100.00;103668.84;7393801;19;20404;-64
2023/01/24 01:15:00;;;;;;;45.10;18.80;;;;;;;2.91;100.00;103671.22;7396028;19;20396;-64
2023/01/24 01:17:32;;;;;;;40.10;18.17;;;;;;;2.78;100.00;103677.38;7393425;19;20383;-64
2023/01/24 01:20:02;;;;;;;37.37;15.83;;;;;;;2.91;100.00;103676.31;7394974;19;20938;-64
2023/01/24 01:22:31;;;;;;;38.63;17.93;;;;;;;2.92;100.00;103673.06;7393776;19;20482;-64
2023/01/24 01:25:04;;;;;;;38.83;17.13;;;;;;;2.80;100.00;103673.41;7395220;19;20407;-64
2023/01/24 01:27:33;;;;;;;44.97;17.93;;;;;;;2.89;100.00;103682.88;7390174;19;20403;-64
2023/01/24 01:30:03;;;;;;;42.20;17.23;;;;;;;2.96;100.00;103677.78;7392134;19;20408;-65
2023/01/24 01:32:35;;;;;;;46.07;17.10;;;;;;;3.03;100.00;103672.69;7391237;19;20403;-64
2023/01/24 01:35:04;;;;;;;38.23;16.80;;;;;;;2.83;100.00;103683.06;7392616;19;20399;-64
2023/01/24 01:37:34;;;;;;;41.70;17.93;;;;;;;2.69;100.00;103678.84;7390640;19;20407;-64
2023/01/24 01:40:03;;;;;;;42.33;17.50;;;;;;;2.76;100.00;103681.41;7391642;19;20817;-64
2023/01/24 01:42:43;;;;;;;45.27;17.67;;;;;;;2.87;100.00;103681.78;7391097;19;20399;-64
2023/01/24 01:45:38;;;;;;;45.30;19.60;;;;;;;2.97;100.00;103675.41;7392234;19;20404;-64
2023/01/24 01:48:17;;;;;;;37.63;17.57;;;;;;;2.73;100.00;103691.25;7386974;19;20431;-64
2023/01/24 01:50:50;;;;;;;48.30;16.40;;;;;;;2.69;100.00;103683.94;7393312;19;20431;-65
2023/01/24 01:53:19;;;;;;;44.73;17.60;;;;;;;2.73;100.00;103681.06;7387919;19;20467;-64
2023/01/24 01:55:54;;;;;;;44.30;17.57;;;;;;;2.78;100.00;103685.03;7391529;19;20463;-65
2023/01/24 01:58:23;;;;;;;45.30;16.23;;;;;;;3.01;100.00;103684.34;7390504;19;20822;-64
2023/01/24 02:00:53;;;;;;;48.30;19.00;;;;;;;3.23;100.00;103672.50;7391107;19;20440;-64
2023/01/24 02:03:41;;;;;;;41.13;17.23;;;;;;;2.95;100.00;103676.88;7390751;19;20453;-64
2023/01/24 02:06:35;;;;;;;38.87;16.50;;;;;;;2.87;100.00;103681.78;7388529;19;20451;-64
2023/01/24 02:09:07;;;;;;;42.87;17.80;;;;;;;2.91;100.00;103677.25;7390838;19;20439;-64
2023/01/24 02:11:43;;;;;;;37.40;16.10;;;;;;;3.03;100.00;103680.34;7395564;19;20529;-64
2023/01/24 02:16:56;;;;;;;35.93;16.70;;;;;;;2.37;100.00;103688.59;7392536;19;20451;-64
2023/01/24 02:19:36;;;;;;;41.03;18.30;;;;;;;2.34;100.00;103688.19;7391167;19;20422;-64
2023/01/24 02:22:12;;;;;;;45.67;17.17;;;;;;;2.65;100.00;103679.19;7394605;19;20399;-64
2023/01/24 02:24:48;;;;;;;37.00;16.80;;;;;;;2.72;100.00;103673.22;7394186;19;20459;-65
2023/01/24 02:27:20;;;;;;;37.53;17.03;;;;;;;2.77;100.00;103669.56;7389369;19;20814;-64
2023/01/24 02:29:49;;;;;;;40.13;16.37;;;;;;;2.77;100.00;103672.13;7393438;19;20391;-64
2023/01/24 02:32:20;;;;;;;40.37;16.60;;;;;;;2.84;100.00;103675.56;7391664;19;20419;-64
2023/01/24 02:34:50;;;;;;;46.47;16.77;;;;;;;2.88;100.00;103671.78;7393121;19;20371;-64
2023/01/24 02:37:19;;;;;;;35.50;15.97;;;;;;;2.56;100.00;103690.09;7389105;19;20467;-64
2023/01/24 02:39:52;;;;;;;38.43;16.27;;;;;;;2.48;100.00;103693.38;7392104;19;20432;-64
2023/01/24 02:42:26;;;;;;;36.20;16.90;;;;;;;2.68;100.00;103687.22;7390714;19;20391;-64
2023/01/24 02:45:00;;;;;;;37.03;15.60;;;;;;;2.35;100.00;103696.03;7393351;19;20845;-64
2023/01/24 02:47:32;;;;;;;51.33;17.90;;;;;;;2.44;100.00;103698.81;7391126;19;20443;-64
2023/01/24 02:50:02;;;;;;;39.23;16.17;;;;;;;2.38;100.00;103698.06;7392791;19;20391;-64
2023/01/24 02:55:14;;;;;;;37.30;16.10;;;;;;;1.89;100.00;103692.22;7392868;19;20973;-64
2023/01/24 03:00:28;;;;;;;45.27;16.67;;;;;;;2.18;100.00;103683.78;7392699;19;20392;-64
2023/01/24 03:02:58;;;;;;;40.53;16.47;;;;;;;2.18;100.00;103687.97;7389525;19;20539;-64
2023/01/24 03:05:39;;;;;;;37.67;15.03;;;;;;;2.23;100.00;103685.28;7393470;19;20946;-64
2023/01/24 03:08:09;;;;;;;35.90;15.80;;;;;;;2.61;100.00;103689.75;7389629;19;20439;-65
2023/01/24 03:10:39;;;;;;;38.83;14.77;;;;;;;2.59;100.00;103691.19;7393952;19;20383;-64
2023/01/24 03:34:51;;;;;;;34.90;14.60;;;;;;;2.46;100.00;103719.41;7398248;19;20450;-64
2023/01/24 03:39:53;;;;;;;41.33;15.33;;;;;;;2.54;100.00;103713.59;7394172;19;20438;-64
2023/01/24 03:40:14;;;;;;;31.50;13.60;;;;;;;2.55;100.00;103715.41;7399028;19;20407;-64
2023/01/24 03:42:49;;;;;;;41.87;15.63;;;;;;;2.45;100.00;103723.56;7395215;19;20490;-64
2023/01/24 03:45:22;;;;;;;40.23;16.23;;;;;;;2.31;100.00;103719.34;7399259;19;20403;-64
2023/01/24 03:48:04;;;;;;;36.73;15.63;;;;;;;2.59;100.00;103712.50;7395550;19;20421;-64
2023/01/24 03:53:18;;;;;;;45.70;16.33;;;;;;;2.42;100.00;103716.47;7395828;19;20788;-65
2023/01/24 03:55:49;;;;;;;34.20;14.30;;;;;;;2.35;100.00;103718.09;7397114;19;20795;-64
2023/01/24 03:58:18;;;;;;;37.30;15.27;;;;;;;2.31;100.00;103714.25;7395712;19;20959;-64
2023/01/24 04:00:50;;;;;;;36.50;15.37;;;;;;;2.31;100.00;103713.31;7397517;19;20427;-64
2023/01/24 04:03:20;;;;;;;41.10;16.03;;;;;;;2.35;100.00;103718.09;7396069;19;20433;-64
2023/01/24 04:05:49;;;;;;;33.43;15.60;;;;;;;2.76;100.00;103717.09;7397170;19;20423;-64
2023/01/24 04:08:19;;;;;;;32.43;14.90;;;;;;;2.78;100.00;103714.75;7395598;19;20455;-64
2023/01/24 04:10:49;;;;;;;31.10;13.23;;;;;;;2.66;100.00;103725.28;7397362;19;20398;-64
2023/01/24 04:13:19;;;;;;;38.80;14.53;;;;;;;2.65;100.00;103722.53;7395328;19;20506;-65
2023/01/24 04:15:51;;;;;;;35.37;13.80;;;;;;;2.81;100.00;103718.59;7396738;19;20435;-65
2023/01/24 04:18:20;;;;;;;30.93;14.53;;;;;;;2.46;100.00;103727.94;7394662;19;20990;-64
2023/01/24 04:20:50;;;;;;;33.33;15.13;;;;;;;2.46;100.00;103725.38;7396888;19;20925;-64
2023/01/24 04:23:19;;;;;;;36.33;14.40;;;;;;;2.34;100.00;103729.91;7396859;19;20526;-65
2023/01/24 04:25:56;;;;;;;33.57;14.70;;;;;;;2.43;100.00;103735.22;7395779;19;20959;-64
2023/01/24 04:28:26;;;;;;;31.20;14.63;;;;;;;2.28;100.00;103734.25;7394994;19;20438;-64
2023/01/24 04:31:02;;;;;;;33.77;14.07;;;;;;;1.86;100.00;103731.66;7397473;19;20407;-65
2023/01/24 04:33:32;;;;;;;31.07;14.47;;;;;;;2.35;100.00;103726.63;7395448;19;21080;-64
2023/01/24 04:36:01;;;;;;;36.00;14.93;;;;;;;2.42;100.00;103725.75;7395680;19;20458;-64
2023/01/24 04:38:31;;;;;;;31.10;13.07;;;;;;;2.65;100.00;103722.53;7394956;19;20423;-64
2023/01/24 04:41:01;;;;;;;30.33;13.40;;;;;;;2.58;100.00;103720.91;7396625;19;20422;-65
2023/01/24 04:43:31;;;;;;;28.00;13.67;;;;;;;2.51;100.00;103724.31;7394957;19;20795;-64
2023/01/24 04:46:03;;;;;;;35.37;14.50;;;;;;;2.58;100.00;103730.16;7395893;19;20423;-64
2023/01/24 04:48:32;;;;;;;30.33;14.33;;;;;;;2.32;100.00;103735.53;7394842;19;20456;-64
2023/01/24 04:51:02;;;;;;;32.13;14.40;;;;;;;2.35;100.00;103738.47;7396808;19;20392;-64
2023/01/24 04:53:33;;;;;;;30.67;14.07;;;;;;;2.50;100.00;103737.78;7394333;19;20438;-64
2023/01/24 04:56:03;;;;;;;30.60;14.33;;;;;;;2.66;100.00;103729.47;7395424;19;20442;-65
2023/01/24 04:58:34;;;;;;;29.97;13.00;;;;;;;2.47;100.00;103734.88;7394540;19;20544;-65
2023/01/24 05:01:06;;;;;;;30.83;14.43;;;;;;;2.78;100.00;103730.06;7396028;19;20400;-64
2023/01/24 05:03:36;;;;;;;57.20;23.83;;;;;;;2.40;100.00;103729.72;7394241;19;20443;-65
2023/01/24 05:06:06;;;;;;;85.50;34.63;;;;;;;2.31;100.00;103720.97;7395120;19;21030;-64
2023/01/24 05:08:35;;;;;;;48.70;22.07;;;;;;;2.30;100.00;103720.03;7394731;19;20958;-64
2023/01/24 05:11:05;;;;;;;31.53;14.10;;;;;;;2.22;100.00;103718.19;7396022;19;20419;-64
2023/01/24 05:13:34;;;;;;;34.77;14.00;;;;;;;2.30;100.00;103720.03;7394120;19;20785;-64
2023/01/24 05:16:07;;;;;;;24.03;12.67;;;;;;;2.51;100.00;103716.66;7394242;19;20418;-64
2023/01/24 05:18:36;;;;;;;29.80;13.67;;;;;;;2.69;100.00;103719.66;7394404;19;20982;-65
2023/01/24 05:21:09;;;;;;;28.60;13.77;;;;;;;2.34;100.00;103723.88;7396046;19;20911;-64
2023/01/24 05:23:39;;;;;;;27.43;13.17;;;;;;;2.42;100.00;103733.41;7394308;19;20474;-64
2023/01/24 05:26:09;;;;;;;28.73;12.87;;;;;;;2.44;100.00;103726.84;7394458;19;20542;-64
2023/01/24 05:28:38;;;;;;;29.27;12.87;;;;;;;2.66;100.00;103730.38;7393682;19;20410;-64
2023/01/24 05:31:11;;;;;;;31.90;13.07;;;;;;;2.50;100.00;103732.69;7395815;19;20399;-65
2023/01/24 05:33:40;;;;;;;29.47;13.50;;;;;;;2.51;100.00;103736.16;7394334;19;20939;-64
2023/01/24 05:36:12;;;;;;;28.93;13.17;;;;;;;2.11;100.00;103739.81;7394133;19;20443;-64
2023/01/24 05:38:41;;;;;;;31.13;12.90;;;;;;;2.11;100.00;103739.81;7393213;19;20430;-64
2023/01/24 05:41:12;;;;;;;27.43;12.73;;;;;;;2.13;100.00;103744.38;7395348;19;20407;-64
2023/01/24 05:43:42;;;;;;;31.60;14.60;;;;;;;2.40;100.00;103740.84;7392499;19;20427;-65
2023/01/24 05:46:16;;;;;;;34.47;14.20;;;;;;;2.51;100.00;103737.06;7393544;19;21483;-64
2023/01/24 05:48:46;;;;;;;30.63;12.93;;;;;;;2.38;100.00;103741.38;7392175;19;20431;-64
2023/01/24 05:51:17;;;;;;;26.33;12.57;;;;;;;2.46;100.00;103744.88;7395678;19;21164;-65
2023/01/24 05:53:47;;;;;;;9.27;5.40;;;;;;;2.21;100.00;103762.25;7392008;19;20557;-64
2023/01/24 05:56:18;;;;;;;21.27;9.17;;;;;;;2.27;100.00;103769.00;7393847;19;20443;-64
2023/01/24 05:58:49;;;;;;;22.83;8.80;;;;;;;1.87;100.00;103775.16;7391707;19;20520;-64
2023/01/24 06:01:22;;;;;;;17.40;7.90;;;;;;;1.89;100.00;103782.97;7394497;19;20403;-65
2023/01/24 06:03:54;;;;;;;15.17;7.57;;;;;;;1.83;100.00;103789.81;7390554;19;20978;-64
2023/01/24 06:06:25;;;;;;;10.40;6.13;;;;;;;1.50;100.00;103801.03;7393127;19;20459;-64
2023/01/24 06:08:54;;;;;;;13.20;7.20;;;;;;;1.91;100.00;103801.91;7391822;19;20988;-64
2023/01/24 06:11:27;;;;;;;15.80;7.80;;;;;;;2.41;100.00;103797.84;7394511;19;20407;-64
2023/01/24 06:13:57;;;;;;;14.93;8.13;;;;;;;2.11;100.00;103812.03;7391009;19;20439;-64
2023/01/24 06:16:29;;;;;;;14.13;7.60;;;;;;;1.84;100.00;103824.78;7393250;19;20442;-65
2023/01/24 06:18:59;;;;;;;14.00;7.43;;;;;;;1.65;100.00;103837.72;7391030;19;20463;-64
2023/01/24 06:21:42;;;;;;;16.20;8.20;;;;;;;1.92;100.00;103829.19;7394483;19;20418;-64
2023/01/24 06:24:18;;;;;;;15.70;7.20;;;;;;;1.85;100.00;103827.50;7391394;19;20462;-64
2023/01/24 06:26:49;;;;;;;14.63;7.30;;;;;;;1.68;100.00;103838.09;7391598;19;20793;-64
2023/01/24 06:29:19;;;;;;;15.97;7.43;;;;;;;1.63;100.00;103846.78;7392124;19;20410;-64
2023/01/24 06:32:00;;;;;;;14.23;6.70;;;;;;;1.58;100.00;103848.75;7393774;19;20954;-64
2023/01/24 06:34:56;;;;;;;14.80;7.23;;;;;;;1.89;100.00;103850.09;7391406;19;20449;-65
2023/01/24 06:37:31;;;;;;;16.73;7.43;;;;;;;2.42;100.00;103835.34;7389042;19;20466;-64
2023/01/24 06:40:00;;;;;;;10.43;5.73;;;;;;;2.21;100.00;103844.66;7393452;19;20403;-64
2023/01/24 06:42:31;;;;;;;17.33;7.40;;;;;;;2.25;100.00;103846.00;7391670;19;20430;-65
2023/01/24 06:45:00;;;;;;;12.90;6.67;;;;;;;2.16;100.00;103846.66;7393215;19;20415;-64
2023/01/24 06:47:32;;;;;;;11.60;6.00;;;;;;;2.22;100.00;103845.59;7386904;19;20782;-64
2023/01/24 06:50:02;;;;;;;12.90;5.93;;;;;;;2.36;100.00;103847.34;7393302;19;20400;-64
2023/01/24 06:52:31;;;;;;;14.07;7.03;;;;;;;2.27;100.00;103854.75;7391257;19;20479;-65
2023/01/24 06:55:01;;;;;;;13.30;7.00;;;;;;;2.10;100.00;103857.72;7393193;19;20415;-64
2023/01/24 06:57:30;;;;;;;16.50;6.90;;;;;;;2.08;100.00;103871.88;7395056;19;20958;-65
2023/01/24 07:00:00;;;;;;;15.97;8.10;;;;;;;2.05;100.00;103862.22;7400210;19;20437;-64
2023/01/24 07:02:32;;;;;;;14.77;7.37;;;;;;;1.83;100.00;103878.94;7397739;19;20434;-64
2023/01/24 07:05:01;;;;;;;15.53;7.77;;;;;;;2.16;100.00;103868.69;7400663;19;20399;-64
2023/01/24 07:07:31;;;;;;;12.17;6.60;;;;;;;1.86;100.00;103884.44;7395209;19;20438;-64
2023/01/24 07:10:00;;;;;;;13.03;6.77;;;;;;;1.64;100.00;103894.41;7400717;19;20973;-65
2023/01/24 07:12:30;;;;;;;17.07;7.03;;;;;;;1.48;100.00;103895.00;7398192;19;20408;-64
2023/01/24 07:14:59;;;;;;;10.70;6.50;;;;;;;1.47;100.00;103897.34;7399906;19;20409;-64
2023/01/24 07:17:32;;;;;;;11.50;6.37;;;;;;;1.33;100.00;103904.09;7395216;19;20451;-63
2023/01/24 07:20:02;;;;;;;12.70;6.70;;;;;;;1.32;100.00;103909.00;7400136;19;20756;-64
2023/01/24 07:22:32;;;;;;;14.10;6.30;;;;;;;1.31;100.00;103909.72;7397434;19;20915;-64
2023/01/24 07:25:03;;;;;;;11.50;4.87;;;;;;;1.32;100.00;103912.47;7400121;19;20434;-64
2023/01/24 07:27:33;;;;;;;12.70;7.03;;;;;;;1.38;100.00;103912.34;7394476;19;20774;-64
2023/01/24 07:30:03;;;;;;;8.90;5.50;;;;;;;1.34;100.00;103915.22;7399837;19;20407;-64
2023/01/24 07:32:35;;;;;;;11.00;5.40;;;;;;;1.33;100.00;103913.38;7398365;19;20937;-64
2023/01/24 07:35:04;;;;;;;13.80;6.97;;;;;;;1.33;100.00;103915.94;7399486;19;20959;-64
2023/01/24 07:37:34;;;;;;;11.90;6.10;;;;;;;1.34;100.00;103916.09;7397192;19;20386;-64
2023/01/24 07:40:04;;;;;;;18.40;8.10;;;;;;;1.35;100.00;103912.84;7399592;19;20409;-65
2023/01/24 07:42:33;;;;;;;13.50;7.03;;;;;;;1.33;100.00;103918.47;7396729;19;20399;-64
2023/01/24 07:45:02;;;;;;;11.23;5.60;;;;;;;1.24;100.00;103913.09;7398927;19;20407;-65
2023/01/24 07:47:35;;;;;;;11.80;6.70;;;;;;;1.25;100.00;103916.53;7395045;19;20451;-64
2023/01/24 07:50:05;;;;;;;10.57;6.00;;;;;;;1.23;100.00;103915.44;7399208;19;20383;-64
2023/01/24 07:52:34;;;;;;;14.80;7.97;;;;;;;1.35;100.00;103919.59;7397459;19;21593;-64
2023/01/24 07:55:04;;;;;;;13.60;6.60;;;;;;;1.36;100.00;103921.41;7399332;19;20387;-65
2023/01/24 07:57:34;;;;;;;16.07;7.90;;;;;;;1.36;100.00;103923.94;7394592;19;20449;-64
2023/01/24 08:00:03;;;;;;;14.17;7.27;;;;;;;1.29;100.00;103919.69;7398911;19;20416;-65
2023/01/24 08:02:35;;;;;;;15.53;8.40;;;;;;;1.23;100.00;103931.59;7393847;19;20407;-64
2023/01/24 08:05:05;;;;;;;12.13;7.00;;;;;;;1.20;100.00;103921.03;7399068;19;20396;-64
2023/01/24 08:07:35;;;;;;;16.30;6.73;;;;;;;1.29;100.00;103927.31;7393423;19;20420;-65
2023/01/24 08:10:06;;;;;;;15.30;7.13;;;;;;;1.30;100.00;103925.69;7398451;19;20471;-64
2023/01/24 08:12:35;;;;;;;12.80;5.83;;;;;;;1.23;100.00;103930.69;7396190;19;20409;-64
2023/01/24 08:15:06;;;;;;;8.93;5.40;;;;;;;1.25;100.00;103929.25;7398824;19;20379;-64
2023/01/24 08:17:40;;;;;;;9.23;5.60;;;;;;;1.24;100.00;103937.63;7396276;19;20455;-64
2023/01/24 08:20:11;;;;;;;13.43;6.23;;;;;;;1.16;100.00;103931.50;7397987;19;20411;-64
2023/01/24 08:22:40;;;;;;;10.50;5.47;;;;;;;1.18;100.00;103935.19;7395825;19;20802;-65
2023/01/24 08:25:26;;;;;;;12.87;6.63;;;;;;;1.18;100.00;103947.91;7398511;19;20447;-64
2023/01/24 08:28:01;;;;;;;9.97;5.60;;;;;;;1.20;100.00;103944.88;7395169;19;20426;-65
2023/01/24 08:30:31;;;;;;;10.20;6.10;;;;;;;1.22;100.00;103942.50;7399068;19;20905;-65
2023/01/24 08:33:07;;;;;;;11.10;6.73;;;;;;;1.21;100.00;103943.22;7394720;19;21037;-64
2023/01/24 08:35:36;;;;;;;15.23;6.27;;;;;;;1.25;100.00;103942.00;7397222;19;20443;-64
2023/01/24 08:38:08;;;;;;;11.60;6.13;;;;;;;1.26;100.00;103943.81;7391953;19;20417;-64
2023/01/24 08:40:37;;;;;;;11.33;5.90;;;;;;;1.16;100.00;103942.63;7399226;19;20720;-63
2023/01/24 08:43:18;;;;;;;10.50;5.97;;;;;;;1.17;100.00;103946.06;7394278;19;20453;-64
2023/01/24 08:45:47;;;;;;;10.03;6.03;;;;;;;1.17;100.00;103944.44;7395619;19;20435;-64
2023/01/24 08:48:19;;;;;;;11.73;6.70;;;;;;;1.21;100.00;103943.22;7395840;19;20454;-65
2023/01/24 08:50:49;;;;;;;11.23;6.53;;;;;;;1.24;100.00;103937.63;7397748;19;20406;-64
2023/01/24 08:53:18;;;;;;;11.37;6.97;;;;;;;1.29;100.00;103931.50;7392158;19;20427;-64
2023/01/24 08:55:51;;;;;;;15.27;7.60;;;;;;;1.26;100.00;103939.66;7397057;19;20429;-64
2023/01/24 08:58:21;;;;;;;16.53;7.47;;;;;;;1.18;100.00;103938.63;7394165;19;20447;-64
2023/01/24 09:00:50;;;;;;;18.33;8.37;;;;;;;1.24;100.00;103937.63;7395791;19;21231;-64
2023/01/24 09:03:22;;;;;;;16.30;7.30;;;;;;;4.20;100.00;103893.16;7389420;19;20463;-64
2023/01/24 09:05:58;;;;;;;14.27;7.17;;;;;;;4.24;100.00;103897.00;7394744;19;20427;-64
2023/01/24 09:08:28;;;;;;;12.70;7.20;;;;;;;4.36;100.00;103905.22;7393643;19;20450;-64
2023/01/24 09:11:00;;;;;;;14.50;7.20;;;;;;;3.92;100.00;103925.69;7396021;19;20402;-64
2023/01/24 09:13:31;;;;;;;11.10;7.30;;;;;;;4.32;100.00;103929.50;7393820;19;20463;-64
2023/01/24 09:16:01;;;;;;;15.73;7.03;;;;;;;3.97;100.00;103949.22;7394687;19;20788;-64
2023/01/24 09:18:33;;;;;;;16.80;8.10;;;;;;;3.88;100.00;103952.50;7391084;19;20423;-65
2023/01/24 09:21:04;;;;;;;16.20;8.57;;;;;;;4.88;100.00;103940.16;7395970;19;20471;-64
2023/01/24 09:23:33;;;;;;;13.30;7.90;;;;;;;4.88;100.00;103956.47;7393201;19;20986;-64
2023/01/24 09:26:03;;;;;;;18.73;9.57;;;;;;;4.48;100.00;103970.59;7394391;19;20458;-64
2023/01/24 09:28:33;;;;;;;12.67;7.40;;;;;;;3.92;100.00;103981.88;7393672;19;20970;-65
2023/01/24 09:31:03;;;;;;;15.90;7.90;;;;;;;4.45;100.00;103986.47;7396799;19;20421;-65
2023/01/24 09:33:35;;;;;;;13.33;7.50;;;;;;;4.46;100.00;103987.38;7393866;19;20444;-65
2023/01/24 09:36:12;;;;;;;13.80;6.87;;;;;;;3.13;100.00;104005.50;7394486;19;20514;-64
2023/01/24 09:38:45;;;;;;;13.40;7.37;;;;;;;3.10;100.00;104004.41;7392287;19;20434;-65
2023/01/24 09:41:41;;;;;;;12.30;7.20;;;;;;;2.79;100.00;103998.03;7396418;19;20407;-64
2023/01/24 09:44:18;;;;;;;13.73;7.80;;;;;;;2.50;100.00;104002.91;7392089;19;20439;-64
2023/01/24 09:46:51;;;;;;;14.23;7.37;;;;;;;2.22;100.00;103996.88;7392996;19;20461;-64
2023/01/24 09:49:30;;;;;;;13.33;6.63;;;;;;;2.02;100.00;104000.28;7392003;19;20444;-64
2023/01/24 09:51:59;;;;;;;14.57;7.30;;;;;;;1.76;100.00;103994.41;7392130;19;20459;-64
2023/01/24 09:54:34;;;;;;;12.17;7.00;;;;;;;1.78;100.00;103992.06;7392657;19;20467;-64
2023/01/24 09:57:03;;;;;;;10.60;6.60;;;;;;;1.59;100.00;103989.66;7392846;19;20587;-63
2023/01/24 09:59:38;;;;;;;12.80;6.63;;;;;;;1.61;100.00;103990.78;7392438;19;20431;-64
2023/01/24 10:02:17;;;;;;;13.40;6.30;;;;;;;1.69;100.00;103981.59;7396099;19;20427;-64
2023/01/24 10:04:50;;;;;;;15.50;7.37;;;;;;;1.67;100.00;103986.47;7392926;19;20431;-64
2023/01/24 10:07:31;;;;;;;12.93;6.93;;;;;;;1.64;100.00;103978.44;7389495;19;20441;-63
2023/01/24 10:10:06;;;;;;;17.90;6.73;;;;;;;1.63;100.00;103974.06;7394273;19;20804;-64
2023/01/24 10:12:45;;;;;;;12.67;7.13;;;;;;;1.57;100.00;103975.81;7392918;19;20403;-64
2023/01/24 10:15:30;;;;;;;12.60;6.90;;;;;;;1.56;100.00;103968.88;7394950;19;20426;-64
2023/01/24 10:18:16;;;;;;;12.77;6.60;;;;;;;1.53;100.00;103963.41;7390851;19;20423;-64
2023/01/24 10:21:09;;;;;;;14.60;7.00;;;;;;;1.57;100.00;103953.81;7393982;19;20407;-63
2023/01/24 10:23:40;;;;;;;11.00;6.67;;;;;;;1.51;100.00;103949.56;7389702;19;20459;-64
2023/01/24 10:26:19;;;;;;;14.33;7.70;;;;;;;1.21;100.00;103949.22;7393131;19;20979;-62
2023/01/24 10:28:51;;;;;;;13.17;6.27;;;;;;;1.14;100.00;103946.59;7390718;19;20438;-63
2023/01/24 10:31:26;;;;;;;15.07;7.73;;;;;;;1.36;100.00;103944.31;7400087;19;20415;-63
2023/01/24 10:34:00;;;;;;;14.90;7.07;;;;;;;1.45;100.00;103942.06;7399104;19;21288;-63
2023/01/24 10:36:43;;;;;;;13.00;6.67;;;;;;;1.52;100.00;103946.28;7399714;19;20486;-63
2023/01/24 10:39:13;;;;;;;14.10;6.70;;;;;;;1.58;100.00;103934.34;7396254;19;20435;-63
2023/01/24 10:41:42;;;;;;;14.17;7.27;;;;;;;1.34;100.00;103941.56;7402371;19;20408;-64
2023/01/24 10:44:16;;;;;;;13.63;6.97;;;;;;;1.37;100.00;103946.13;7398231;19;20473;-63
2023/01/24 10:47:27;;;;;;;13.63;7.40;;;;;;;1.53;100.00;103948.16;7398626;19;20439;-63
2023/01/24 10:50:00;;;;;;;14.87;7.47;;;;;;;1.60;100.00;103949.13;7399718;19;20537;-63
2023/01/24 10:52:33;;;;;;;12.53;7.50;;;;;;;1.62;100.00;103941.69;7398272;19;20446;-63
2023/01/24 10:55:05;;;;;;;13.97;7.07;;;;;;;1.43;100.00;103948.59;7400791;19;20418;-65
2023/01/24 10:57:39;;;;;;;17.83;7.77;;;;;;;1.32;100.00;103947.16;7395738;19;20434;-63
2023/01/24 11:00:22;;;;;;;15.80;7.20;;;;;;;1.18;100.00;103940.28;7400685;19;20402;-64
2023/01/24 11:02:53;;;;;;;15.60;7.90;;;;;;;1.03;100.00;103939.19;7395942;19;21072;-63
2023/01/24 11:05:24;;;;;;;12.10;6.87;;;;;;;0.85;100.00;103943.66;7399115;19;20421;-63
2023/01/24 11:08:04;;;;;;;15.80;8.67;;;;;;;0.93;100.00;103937.94;7396301;19;20835;-63
2023/01/24 11:10:37;;;;;;;14.77;7.47;;;;;;;1.00;100.00;103937.16;7400576;19;20421;-63
2023/01/24 11:13:35;;;;;;;18.10;8.70;;;;;;;1.20;100.00;103931.22;7396933;19;20417;-64
2023/01/24 11:16:08;;;;;;;14.30;7.57;;;;;;;1.15;100.00;103935.72;7398946;19;20435;-63
2023/01/24 11:18:37;;;;;;;15.30;8.63;;;;;;;1.21;100.00;103927.94;7398234;19;20801;-63
2023/01/24 11:21:13;;;;;;;12.90;7.60;;;;;;;1.15;100.00;103925.53;7400054;19;20898;-64
2023/01/24 11:23:46;;;;;;;15.53;8.40;;;;;;;1.25;100.00;103929.25;7396760;19;20439;-63
2023/01/24 11:26:24;;;;;;;15.07;8.60;;;;;;;1.37;100.00;103920.69;7397174;19;20793;-64
2023/01/24 11:29:02;;;;;;;18.47;9.17;;;;;;;1.96;100.00;103906.91;7396123;19;20787;-64
2023/01/24 11:31:34;;;;;;;28.90;13.00;;;;;;;1.68;100.00;103911.94;7400587;19;20739;-64
2023/01/24 11:34:19;;;;;;;13.60;7.57;;;;;;;1.58;100.00;103921.63;7380205;19;20426;-64
2023/01/24 11:36:59;;;;;;;15.20;8.03;;;;;;;1.24;100.00;103912.19;7396547;19;20425;-64
2023/01/24 11:39:40;;;;;;;15.50;8.03;;;;;;;1.07;100.00;103915.97;7396792;19;20431;-64
2023/01/24 11:42:14;;;;;;;11.90;6.93;;;;;;;0.93;100.00;103920.16;7398225;19;20414;-64
2023/01/24 11:45:00;;;;;;;14.33;7.50;;;;;;;0.88;100.00;103905.91;7397552;19;20467;-63
2023/01/24 11:47:33;;;;;;;18.40;7.40;;;;;;;0.98;100.00;103902.06;7394886;19;20483;-63
2023/01/24 11:50:20;;;;;;;16.70;7.93;;;;;;;1.16;100.00;103895.91;7399527;19;20403;-64
2023/01/24 11:53:08;;;;;;;19.33;7.70;;;;;;;1.55;100.00;103896.72;7395560;19;20453;-64
2023/01/24 11:55:48;;;;;;;17.70;9.00;;;;;;;1.81;100.00;103896.59;7398717;19;21778;-64
2023/01/24 11:58:31;;;;;;;13.70;7.83;;;;;;;1.92;100.00;103904.69;7396124;19;20422;-64
2023/01/24 12:01:05;;;;;;;13.17;7.90;;;;;;;1.69;100.00;103910.31;7399471;19;20761;-64
2023/01/24 12:03:57;;;;;;;16.67;9.60;;;;;;;1.49;100.00;103918.84;7395299;19;20462;-64
2023/01/24 12:06:34;;;;;;;18.30;9.03;;;;;;;1.49;100.00;103908.66;7396406;19;20439;-63
2023/01/24 12:09:17;;;;;;;18.07;8.83;;;;;;;1.52;100.00;103911.59;7395218;19;20441;-64
2023/01/24 12:11:53;;;;;;;14.63;8.50;;;;;;;1.51;100.00;103908.84;7399645;19;20406;-64